Time;durP1;ratioP1;P1;durP2;ratioP2;P2;SDS_P1;SDS_P2;PMS_P1;PMS_P2;Temp;Humidity;BMP_temperature;BMP_pressure;BME280_temperature;BME280_humidity;BME280_pressure;Samples;Min_cycle;Max_cycle;Signal;HPM_P1;HPM_P2
2023/09/18 00:00:04;;;;;;;30.52;25.75;;;16.30;99.90;;;;;;6157260;23;20013;-86
2023/09/18 00:02:31;;;;;;;23.92;20.77;;;16.30;99.90;;;;;;6181676;23;20012;-86
2023/09/18 00:04:56;;;;;;;30.10;26.92;;;16.20;99.90;;;;;;6181380;23;20088;-86
2023/09/18 00:07:22;;;;;;;29.45;26.25;;;16.40;99.90;;;;;;6181198;23;20063;-85
2023/09/18 00:09:48;;;;;;;35.90;31.02;;;15.80;99.90;;;;;;6180684;23;20088;-85
2023/09/18 00:12:14;;;;;;;39.80;32.13;;;16.20;99.90;;;;;;6181460;23;20017;-85
2023/09/18 00:14:41;;;;;;;35.63;31.80;;;16.20;99.90;;;;;;6181394;23;20331;-85
2023/09/18 00:17:07;;;;;;;39.75;31.38;;;16.20;99.90;;;;;;6181994;23;20570;-85
2023/09/18 00:19:33;;;;;;;40.00;32.63;;;16.20;99.90;;;;;;6181003;23;20029;-85
2023/09/18 00:22:00;;;;;;;39.20;30.85;;;16.20;99.90;;;;;;6181492;23;20044;-86
2023/09/18 00:24:26;;;;;;;42.13;35.42;;;16.30;99.90;;;;;;6180328;23;20395;-86
2023/09/18 00:26:52;;;;;;;44.08;34.70;;;16.20;99.90;;;;;;6156474;23;20009;-85
2023/09/18 00:29:18;;;;;;;42.92;36.10;;;16.20;99.90;;;;;;6156900;23;20339;-84
2023/09/18 00:31:44;;;;;;;50.83;38.00;;;16.20;99.90;;;;;;6180309;23;20506;-85
2023/09/18 00:34:10;;;;;;;61.55;43.13;;;16.20;99.90;;;;;;6180306;23;20197;-85
2023/09/18 00:36:36;;;;;;;70.80;44.30;;;16.30;99.90;;;;;;6155704;23;20009;-85
2023/09/18 00:39:01;;;;;;;68.72;46.35;;;16.40;99.90;;;;;;6179980;23;20010;-86
2023/09/18 00:41:27;;;;;;;73.13;48.80;;;16.40;99.90;;;;;;6156423;23;20009;-86
2023/09/18 00:43:53;;;;;;;99.07;51.47;;;16.40;99.90;;;;;;6156523;23;20021;-85
2023/09/18 00:46:19;;;;;;;73.60;49.83;;;16.50;99.90;;;;;;6156300;23;20471;-85
2023/09/18 00:48:46;;;;;;;109.05;50.78;;;16.50;99.90;;;;;;6157330;23;20382;-86
2023/09/18 00:51:13;;;;;;;87.10;49.88;;;16.40;99.90;;;;;;6183010;23;20039;-86
2023/09/18 00:53:43;;;;;;;87.25;50.65;;;16.50;99.90;;;;;;6157771;23;20030;-85
2023/09/18 00:56:10;;;;;;;81.60;48.53;;;16.60;99.90;;;;;;6158493;23;20391;-86
2023/09/18 00:58:36;;;;;;;86.38;51.25;;;16.60;99.90;;;;;;6158978;23;20013;-86
2023/09/18 01:01:03;;;;;;;76.88;51.78;;;16.50;99.90;;;;;;6183639;23;20332;-86
2023/09/18 01:03:29;;;;;;;76.18;47.85;;;16.50;99.90;;;;;;6183489;23;20024;-86
2023/09/18 01:05:55;;;;;;;89.95;51.70;;;16.50;99.90;;;;;;6157958;23;20332;-85
2023/09/18 01:08:21;;;;;;;79.15;49.28;;;16.60;99.90;;;;;;6158322;23;20017;-86
2023/09/18 01:11:05;;;;;;;82.95;53.22;;;16.60;99.90;;;;;;6158381;23;20019;-86
2023/09/18 01:13:38;;;;;;;83.82;52.45;;;16.60;99.90;;;;;;6158346;23;20340;-86
2023/09/18 01:16:14;;;;;;;95.40;53.55;;;16.60;99.90;;;;;;6182971;23;20009;-86
2023/09/18 01:18:49;;;;;;;72.35;48.47;;;16.60;99.90;;;;;;6182635;23;20013;-87
2023/09/18 01:21:15;;;;;;;87.57;52.28;;;16.60;99.90;;;;;;6182753;23;20013;-85
2023/09/18 01:23:40;;;;;;;70.00;49.88;;;16.50;99.90;;;;;;6157899;23;20507;-86
2023/09/18 01:26:06;;;;;;;74.15;47.85;;;16.60;99.90;;;;;;6158194;23;20013;-86
2023/09/18 01:28:31;;;;;;;61.53;45.30;;;16.30;99.90;;;;;;6157730;23;20064;-85
2023/09/18 01:30:57;;;;;;;69.38;48.90;;;16.50;99.90;;;;;;6182851;23;20013;-85
2023/09/18 01:33:24;;;;;;;66.18;45.83;;;16.50;99.90;;;;;;6183172;23;20023;-86
2023/09/18 01:35:54;;;;;;;69.47;47.50;;;16.40;99.90;;;;;;6182516;23;20082;-86
2023/09/18 01:38:22;;;;;;;70.60;48.85;;;16.40;99.90;;;;;;6158092;23;20013;-85
2023/09/18 01:40:48;;;;;;;68.78;45.38;;;16.40;99.90;;;;;;6157881;23;20015;-86
2023/09/18 01:43:14;;;;;;;66.40;45.95;;;16.30;99.90;;;;;;6157545;23;20394;-85
2023/09/18 01:45:40;;;;;;;72.57;48.30;;;16.30;99.90;;;;;;6158167;23;20013;-86
2023/09/18 01:48:06;;;;;;;75.85;46.38;;;16.30;99.90;;;;;;6183189;23;20013;-86
2023/09/18 01:50:32;;;;;;;69.88;48.75;;;16.30;99.90;;;;;;6157415;23;20027;-85
2023/09/18 01:52:59;;;;;;;69.47;46.92;;;16.30;99.90;;;;;;6182892;23;20024;-86
2023/09/18 01:55:24;;;;;;;71.82;47.92;;;16.30;99.90;;;;;;6182444;23;20009;-86
2023/09/18 01:57:50;;;;;;;67.97;47.63;;;16.40;99.90;;;;;;6182424;23;20301;-86
2023/09/18 02:00:16;;;;;;;70.50;49.65;;;16.40;99.90;;;;;;6182094;23;20657;-86
2023/09/18 02:02:42;;;;;;;66.20;46.70;;;16.40;99.90;;;;;;6157465;23;20511;-86
2023/09/18 02:05:07;;;;;;;70.57;48.13;;;16.40;99.90;;;;;;6182372;23;20025;-87
2023/09/18 02:07:33;;;;;;;73.43;46.95;;;16.40;99.90;;;;;;6182816;23;20048;-85
2023/09/18 02:09:59;;;;;;;66.00;46.15;;;16.40;99.90;;;;;;6182670;23;20048;-86
2023/09/18 02:12:25;;;;;;;67.95;45.72;;;16.40;99.90;;;;;;6181367;23;20459;-86
2023/09/18 02:14:50;;;;;;;64.57;47.97;;;16.40;99.90;;;;;;6181498;23;20009;-86
2023/09/18 02:17:16;;;;;;;72.82;47.50;;;16.40;99.90;;;;;;6181577;23;20084;-85
2023/09/18 02:19:42;;;;;;;73.53;49.58;;;16.40;99.90;;;;;;6156832;23;20009;-86
2023/09/18 02:22:08;;;;;;;64.18;45.83;;;16.40;99.90;;;;;;6157264;23;20084;-85
2023/09/18 02:24:34;;;;;;;66.15;44.78;;;16.40;99.90;;;;;;6182587;23;20020;-86
2023/09/18 02:27:00;;;;;;;58.05;43.63;;;16.40;99.90;;;;;;6157738;23;20012;-86
2023/09/18 02:29:26;;;;;;;56.50;44.63;;;16.40;99.90;;;;;;6183077;23;20063;-86
2023/09/18 02:31:51;;;;;;;57.28;44.28;;;16.40;99.90;;;;;;6157503;23;20013;-85
2023/09/18 02:34:19;;;;;;;52.28;41.97;;;16.30;99.90;;;;;;6181669;23;20064;-86
2023/09/18 02:36:44;;;;;;;57.65;42.33;;;16.40;99.90;;;;;;6157227;23;20040;-86
2023/09/18 02:39:10;;;;;;;55.20;42.00;;;16.40;99.90;;;;;;6157376;23;20655;-86
2023/09/18 02:41:36;;;;;;;54.47;42.50;;;16.40;99.90;;;;;;6182024;23;20005;-87
2023/09/18 02:44:01;;;;;;;59.20;43.33;;;16.40;99.90;;;;;;6157123;23;20079;-86
2023/09/18 02:46:27;;;;;;;58.15;44.03;;;16.20;99.90;;;;;;6182100;23;20100;-86
2023/09/18 02:48:53;;;;;;;54.55;43.20;;;16.50;99.90;;;;;;6157511;23;20199;-86
2023/09/18 02:51:19;;;;;;;55.33;43.63;;;16.50;99.90;;;;;;6182357;23;20021;-86
2023/09/18 02:53:44;;;;;;;61.05;43.45;;;16.20;99.90;;;;;;6182441;23;20023;-85
2023/09/18 02:56:10;;;;;;;57.70;40.85;;;16.50;99.90;;;;;;6157659;23;20040;-84
2023/09/18 02:58:36;;;;;;;55.03;42.20;;;16.60;99.90;;;;;;6157630;23;20321;-85
2023/09/18 03:01:03;;;;;;;55.55;43.53;;;16.50;99.90;;;;;;6182441;23;20095;-86
2023/09/18 03:03:29;;;;;;;51.47;42.50;;;16.50;99.90;;;;;;6156574;23;20013;-86
2023/09/18 03:06:03;;;;;;;55.60;42.53;;;15.90;99.90;;;;;;6181435;23;20032;-86
2023/09/18 03:08:29;;;;;;;53.38;41.78;;;16.50;99.90;;;;;;6157703;23;20091;-86
2023/09/18 03:10:55;;;;;;;57.70;42.17;;;16.60;99.90;;;;;;6182264;23;20017;-86
2023/09/18 03:13:21;;;;;;;54.05;39.17;;;16.50;99.90;;;;;;6157310;23;20013;-86
2023/09/18 03:15:47;;;;;;;51.95;39.85;;;16.60;99.90;;;;;;6157478;23;20582;-86
2023/09/18 03:18:13;;;;;;;57.92;43.95;;;16.50;99.90;;;;;;6181735;23;20013;-85
2023/09/18 03:20:39;;;;;;;52.97;41.67;;;16.50;99.90;;;;;;6157336;23;20009;-85
2023/09/18 03:23:05;;;;;;;48.78;38.63;;;16.50;99.90;;;;;;6181915;23;20468;-86
2023/09/18 03:25:31;;;;;;;46.00;36.22;;;16.40;99.90;;;;;;6157092;23;20049;-86
2023/09/18 03:27:57;;;;;;;46.15;38.70;;;16.40;99.90;;;;;;6157181;23;20039;-86
2023/09/18 03:30:24;;;;;;;50.53;37.15;;;16.40;99.90;;;;;;6157325;23;20016;-87
2023/09/18 03:32:50;;;;;;;48.35;36.55;;;16.40;99.90;;;;;;6181794;23;20065;-86
2023/09/18 03:35:18;;;;;;;48.88;42.28;;;16.30;99.90;;;;;;6157360;23;20061;-86
2023/09/18 03:37:47;;;;;;;57.17;42.53;;;16.30;99.90;;;;;;6181822;23;20036;-87
2023/09/18 03:40:13;;;;;;;48.13;39.22;;;16.30;99.90;;;;;;6182027;23;20013;-86
2023/09/18 03:42:39;;;;;;;52.05;42.03;;;16.30;99.90;;;;;;6181521;23;20048;-86
2023/09/18 03:45:06;;;;;;;52.38;42.75;;;16.30;99.90;;;;;;6157135;23;20017;-85
2023/09/18 03:47:33;;;;;;;52.85;40.38;;;16.30;99.90;;;;;;6181092;23;20060;-86
2023/09/18 03:49:59;;;;;;;47.85;38.65;;;16.40;99.90;;;;;;6181601;23;20020;-86
2023/09/18 03:52:24;;;;;;;54.28;42.72;;;16.30;99.90;;;;;;6181881;23;20340;-86
2023/09/18 03:54:51;;;;;;;56.28;42.15;;;16.30;99.90;;;;;;6157192;23;20147;-87
2023/09/18 03:57:16;;;;;;;48.03;38.50;;;16.30;99.90;;;;;;6157129;23;20016;-86
2023/09/18 03:59:42;;;;;;;56.92;40.50;;;16.30;99.90;;;;;;6156880;23;20012;-86
2023/09/18 04:02:08;;;;;;;46.40;36.65;;;16.30;99.90;;;;;;6181019;23;20020;-85
2023/09/18 04:04:33;;;;;;;48.95;37.85;;;16.30;99.90;;;;;;6156613;23;20013;-85
2023/09/18 04:06:59;;;;;;;45.70;36.25;;;16.30;99.90;;;;;;6181287;23;20013;-86
2023/09/18 04:09:25;;;;;;;48.28;36.58;;;16.30;99.90;;;;;;6157114;23;20024;-86
2023/09/18 04:11:51;;;;;;;50.25;36.50;;;16.40;99.90;;;;;;6156952;23;20012;-87
2023/09/18 04:14:21;;;;;;;50.05;37.38;;;16.40;99.90;;;;;;6160311;23;20009;-85
2023/09/18 04:16:46;;;;;;;47.70;36.50;;;16.40;99.90;;;;;;6155574;23;20021;-85
2023/09/18 04:19:12;;;;;;;45.67;35.85;;;16.40;99.90;;;;;;6180611;23;20009;-85
2023/09/18 04:21:38;;;;;;;42.53;33.58;;;16.40;99.90;;;;;;6180713;23;20009;-86
2023/09/18 04:24:04;;;;;;;44.05;34.22;;;16.40;99.90;;;;;;6179772;23;20016;-86
2023/09/18 04:26:30;;;;;;;43.58;35.28;;;16.40;99.90;;;;;;6180948;23;20017;-86
2023/09/18 04:29:05;;;;;;;44.38;35.40;;;16.40;99.90;;;;;;6181009;23;20009;-86
2023/09/18 04:31:31;;;;;;;40.03;34.25;;;16.40;99.90;;;;;;6155324;23;20005;-85
2023/09/18 04:33:57;;;;;;;44.85;34.40;;;16.50;99.90;;;;;;6180149;23;20010;-86
2023/09/18 04:36:23;;;;;;;44.47;34.10;;;16.40;99.90;;;;;;6181190;23;20446;-86
2023/09/18 04:38:49;;;;;;;40.95;32.08;;;16.40;99.90;;;;;;6156094;23;20013;-86
2023/09/18 04:41:16;;;;;;;42.30;33.35;;;16.40;99.90;;;;;;6180839;23;20022;-85
2023/09/18 04:43:42;;;;;;;40.08;31.73;;;16.40;99.90;;;;;;6180690;23;20147;-85
2023/09/18 04:46:08;;;;;;;40.60;31.52;;;16.50;99.90;;;;;;6156148;23;20317;-85
2023/09/18 04:48:34;;;;;;;40.85;29.10;;;16.50;99.90;;;;;;6156146;23;20048;-85
2023/09/18 04:51:00;;;;;;;41.60;30.90;;;16.50;99.90;;;;;;6181358;23;20095;-85
2023/09/18 04:53:28;;;;;;;31.80;26.13;;;16.50;99.90;;;;;;6181676;23;20068;-85
2023/09/18 04:55:54;;;;;;;40.58;30.45;;;16.50;99.90;;;;;;6156358;23;20019;-85
2023/09/18 04:58:20;;;;;;;43.47;29.98;;;16.50;99.90;;;;;;6180801;23;20099;-86
2023/09/18 05:00:46;;;;;;;34.40;27.00;;;16.60;99.90;;;;;;6181648;23;20013;-85
2023/09/18 05:03:12;;;;;;;40.47;28.40;;;16.60;99.90;;;;;;6156734;23;20087;-85
2023/09/18 05:05:38;;;;;;;38.00;30.48;;;16.60;99.90;;;;;;6176237;23;20024;-85
2023/09/18 05:08:10;;;;;;;32.08;25.60;;;16.70;99.90;;;;;;6181650;23;20013;-86
2023/09/18 05:10:36;;;;;;;36.13;29.65;;;16.70;99.90;;;;;;6181158;23;20016;-86
2023/09/18 05:13:02;;;;;;;35.22;27.67;;;16.70;99.90;;;;;;6182877;23;20016;-87
2023/09/18 05:15:29;;;;;;;34.65;28.02;;;16.70;99.90;;;;;;6181760;23;20351;-85
2023/09/18 05:17:57;;;;;;;33.65;26.60;;;16.80;99.90;;;;;;6155175;23;20098;-85
2023/09/18 05:20:24;;;;;;;40.55;32.20;;;16.80;99.90;;;;;;6155270;23;20344;-87
2023/09/18 05:22:52;;;;;;;42.30;30.45;;;16.80;99.90;;;;;;6180086;23;20049;-86
2023/09/18 05:25:18;;;;;;;28.90;25.23;;;16.80;99.90;;;;;;6180330;23;20562;-85
2023/09/18 05:27:44;;;;;;;38.67;28.65;;;16.90;99.90;;;;;;6155115;23;20013;-86
2023/09/18 05:30:15;;;;;;;35.50;26.35;;;16.90;99.90;;;;;;6155718;23;20024;-86
2023/09/18 05:32:45;;;;;;;32.42;26.35;;;16.70;99.90;;;;;;6181233;23;20746;-85
2023/09/18 05:35:12;;;;;;;35.22;27.45;;;16.90;99.90;;;;;;6180500;23;20049;-85
2023/09/18 05:37:38;;;;;;;31.15;25.05;;;16.90;99.90;;;;;;6157042;23;20077;-85
2023/09/18 05:40:10;;;;;;;33.25;26.27;;;17.00;99.90;;;;;;6156975;23;20009;-85
2023/09/18 05:42:42;;;;;;;32.53;27.38;;;17.00;99.90;;;;;;6180937;23;20422;-84
2023/09/18 05:45:09;;;;;;;31.85;25.75;;;17.10;99.90;;;;;;6182060;23;20024;-86
2023/09/18 05:47:38;;;;;;;30.02;24.08;;;17.10;99.90;;;;;;6156865;23;20056;-85
2023/09/18 05:50:09;;;;;;;33.90;25.10;;;16.80;99.90;;;;;;6156648;23;20340;-84
2023/09/18 05:52:35;;;;;;;29.63;23.83;;;17.10;99.90;;;;;;6156897;23;20405;-85
2023/09/18 05:55:03;;;;;;;34.25;23.45;;;17.20;99.90;;;;;;6181049;23;20045;-85
2023/09/18 05:57:29;;;;;;;27.42;22.52;;;17.30;99.90;;;;;;6156125;23;20009;-85
2023/09/18 05:59:55;;;;;;;24.55;20.52;;;17.30;99.90;;;;;;6157067;23;20013;-86
2023/09/18 06:02:21;;;;;;;25.35;19.60;;;17.30;99.90;;;;;;6184043;23;20020;-84
2023/09/18 06:04:47;;;;;;;24.83;17.52;;;17.40;99.90;;;;;;6158193;23;20280;-84
2023/09/18 06:07:13;;;;;;;27.15;18.90;;;17.40;99.90;;;;;;6159116;23;20039;-84
2023/09/18 06:09:39;;;;;;;24.30;17.70;;;17.50;99.90;;;;;;6157763;23;20013;-84
2023/09/18 06:12:05;;;;;;;22.40;18.50;;;17.50;99.90;;;;;;6157411;23;20009;-84
2023/09/18 06:14:34;;;;;;;21.05;18.17;;;17.60;99.90;;;;;;6158221;23;20012;-84
2023/09/18 06:16:59;;;;;;;25.05;17.30;;;17.60;99.90;;;;;;6159178;23;20128;-83
2023/09/18 06:19:25;;;;;;;27.45;17.77;;;17.60;99.90;;;;;;6158767;23;20459;-83
2023/09/18 06:21:51;;;;;;;20.15;18.00;;;17.60;99.90;;;;;;6183867;23;20083;-83
2023/09/18 06:24:16;;;;;;;17.55;15.73;;;17.60;99.90;;;;;;6159539;23;20040;-83
2023/09/18 06:26:42;;;;;;;19.05;17.05;;;17.70;99.90;;;;;;6158449;23;20024;-83
2023/09/18 06:29:09;;;;;;;22.23;15.10;;;17.80;99.90;;;;;;6183396;23;20009;-84
2023/09/18 06:31:35;;;;;;;17.05;15.30;;;17.80;99.90;;;;;;6158104;23;20012;-84
2023/09/18 06:34:01;;;;;;;21.92;15.48;;;17.80;99.90;;;;;;6159629;23;20013;-88
2023/09/18 06:36:26;;;;;;;21.17;15.55;;;17.90;99.90;;;;;;6185230;23;20017;-83
2023/09/18 06:38:53;;;;;;;19.15;16.40;;;17.90;99.90;;;;;;6183507;23;20044;-83
2023/09/18 06:41:18;;;;;;;26.75;16.15;;;17.90;99.90;;;;;;6159823;23;20012;-80
2023/09/18 06:43:44;;;;;;;23.45;17.13;;;17.90;99.90;;;;;;6183461;23;20016;-80
2023/09/18 06:46:10;;;;;;;18.83;13.57;;;17.90;99.90;;;;;;6183065;23;20017;-80
2023/09/18 06:48:36;;;;;;;19.60;15.18;;;17.90;99.90;;;;;;6183414;23;20012;-83
2023/09/18 06:51:01;;;;;;;28.38;17.05;;;18.00;99.90;;;;;;6157608;23;20347;-85
2023/09/18 06:53:29;;;;;;;22.70;17.45;;;18.00;99.90;;;;;;6182315;23;20013;-83
2023/09/18 06:55:55;;;;;;;17.83;15.02;;;18.00;99.90;;;;;;6182134;23;20075;-83
2023/09/18 06:58:21;;;;;;;17.92;15.27;;;18.00;99.90;;;;;;6158421;23;20008;-82
2023/09/18 07:00:47;;;;;;;21.98;15.85;;;18.10;99.90;;;;;;6179766;23;20051;-82
2023/09/18 07:03:13;;;;;;;21.40;15.68;;;18.00;99.90;;;;;;6182412;23;20162;-81
2023/09/18 07:05:40;;;;;;;21.92;15.27;;;18.10;99.90;;;;;;6182744;23;20462;-80
2023/09/18 07:08:09;;;;;;;18.70;14.43;;;18.10;99.90;;;;;;6158142;23;20024;-81
2023/09/18 07:10:35;;;;;;;18.35;15.18;;;18.10;99.90;;;;;;6156525;23;20016;-81
2023/09/18 07:13:01;;;;;;;16.40;14.40;;;18.10;99.90;;;;;;6182577;23;20008;-82
2023/09/18 07:15:26;;;;;;;26.52;16.50;;;18.10;99.90;;;;;;6183335;23;20017;-80
2023/09/18 07:17:52;;;;;;;28.83;15.95;;;18.10;99.90;;;;;;6182303;23;20488;-81
2023/09/18 07:20:18;;;;;;;44.15;19.10;;;18.10;99.90;;;;;;6182674;23;20482;-83
2023/09/18 07:22:47;;;;;;;43.17;21.38;;;18.10;99.90;;;;;;6182327;23;20461;-79
2023/09/18 07:25:13;;;;;;;32.47;20.63;;;18.00;99.90;;;;;;6182835;23;20023;-82
2023/09/18 07:27:43;;;;;;;44.50;22.98;;;18.00;99.90;;;;;;6184057;23;20413;-81
2023/09/18 07:30:16;;;;;;;31.83;19.48;;;18.00;99.90;;;;;;6183616;23;20076;-80
2023/09/18 07:32:42;;;;;;;34.58;20.95;;;18.00;99.90;;;;;;6158904;23;20256;-79
2023/09/18 07:35:09;;;;;;;33.30;20.77;;;17.90;99.90;;;;;;6158943;23;20012;-79
2023/09/18 07:37:35;;;;;;;31.88;19.98;;;17.90;99.90;;;;;;6182964;23;20009;-78
2023/09/18 07:40:04;;;;;;;26.73;17.45;;;17.90;99.90;;;;;;6210303;23;20013;-81
2023/09/18 07:42:30;;;;;;;28.35;19.05;;;17.90;99.90;;;;;;6183396;23;20012;-80
2023/09/18 07:44:55;;;;;;;31.92;20.25;;;18.00;99.90;;;;;;6183429;23;20024;-79
2023/09/18 07:47:22;;;;;;;39.45;20.73;;;17.90;99.90;;;;;;6183700;23;20015;-83
2023/09/18 07:49:48;;;;;;;27.92;17.10;;;17.90;99.90;;;;;;6158019;23;20074;-80
2023/09/18 07:52:15;;;;;;;27.27;18.75;;;17.90;99.90;;;;;;6180915;23;20024;-79
2023/09/18 07:54:40;;;;;;;25.88;18.25;;;17.90;99.90;;;;;;6182565;23;20075;-80
2023/09/18 07:57:09;;;;;;;25.73;18.35;;;17.90;99.90;;;;;;6182557;23;20012;-79
2023/09/18 07:59:36;;;;;;;30.27;20.23;;;17.90;99.90;;;;;;6158022;23;20013;-79
2023/09/18 08:02:02;;;;;;;26.92;18.30;;;18.00;99.90;;;;;;6183486;23;20079;-79
2023/09/18 08:04:27;;;;;;;29.77;17.73;;;18.00;99.90;;;;;;6183074;23;20055;-81
2023/09/18 08:06:53;;;;;;;60.58;20.02;;;18.00;99.90;;;;;;6185595;23;20498;-84
2023/09/18 08:09:18;;;;;;;34.47;20.17;;;18.00;99.90;;;;;;6185057;23;20383;-80
2023/09/18 08:11:44;;;;;;;26.67;18.45;;;18.00;99.90;;;;;;6183226;23;20044;-81
2023/09/18 08:14:10;;;;;;;24.95;18.40;;;18.10;99.90;;;;;;6183072;23;20058;-80
2023/09/18 08:16:38;;;;;;;27.40;18.25;;;18.20;99.90;;;;;;6183057;23;20016;-81
2023/09/18 08:19:04;;;;;;;26.15;18.98;;;18.20;99.90;;;;;;6183109;23;20012;-79
2023/09/18 08:21:29;;;;;;;24.58;19.08;;;18.20;99.90;;;;;;6182902;23;20605;-81
2023/09/18 08:23:55;;;;;;;25.17;17.90;;;18.20;99.90;;;;;;6182980;23;20557;-80
2023/09/18 08:26:25;;;;;;;27.33;19.52;;;18.20;99.90;;;;;;6210141;23;20020;-80
2023/09/18 08:28:50;;;;;;;28.50;18.45;;;18.20;99.90;;;;;;6183019;23;20570;-80
2023/09/18 08:31:16;;;;;;;45.50;24.45;;;18.20;99.90;;;;;;6158614;23;20071;-81
2023/09/18 08:33:43;;;;;;;24.77;18.73;;;18.30;99.90;;;;;;6158070;23;20008;-82
2023/09/18 08:36:09;;;;;;;27.02;16.67;;;18.30;99.90;;;;;;6182486;23;20039;-81
2023/09/18 08:38:35;;;;;;;25.27;18.02;;;18.30;99.90;;;;;;6158386;23;20013;-83
2023/09/18 08:41:00;;;;;;;23.55;16.33;;;18.30;99.90;;;;;;6183312;23;20009;-82
2023/09/18 08:43:28;;;;;;;25.15;17.15;;;18.30;99.90;;;;;;6158418;23;20008;-82
2023/09/18 08:46:01;;;;;;;20.58;15.80;;;18.30;99.90;;;;;;6183543;23;20025;-81
2023/09/18 08:48:34;;;;;;;25.17;17.42;;;18.30;99.90;;;;;;6158411;23;20016;-82
2023/09/18 08:51:02;;;;;;;23.35;15.68;;;18.40;99.90;;;;;;6158580;23;20099;-81
2023/09/18 08:53:30;;;;;;;23.85;17.00;;;18.50;99.90;;;;;;6158828;23;20339;-83
2023/09/18 08:55:58;;;;;;;28.95;18.40;;;18.60;99.90;;;;;;6185896;23;20013;-83
2023/09/18 08:58:26;;;;;;;21.38;16.10;;;18.70;99.90;;;;;;6158647;23;20011;-81
2023/09/18 09:00:53;;;;;;;22.20;16.92;;;18.80;99.90;;;;;;6164922;23;20032;-82
2023/09/18 09:03:18;;;;;;;27.50;16.48;;;18.90;99.90;;;;;;6158305;23;20016;-80
2023/09/18 10:16:39;;;;;;;22.80;20.23;;;20.60;99.90;;;;;;6240071;22;20060;-81
2023/09/18 10:19:28;;;;;;;23.92;20.25;;;20.60;99.90;;;;;;6238316;23;20020;-81
2023/09/18 10:22:13;;;;;;;26.45;20.55;;;20.70;99.90;;;;;;6188069;23;20012;-82
2023/09/18 10:24:43;;;;;;;24.60;21.17;;;20.70;99.90;;;;;;6188630;23;20066;-81
2023/09/18 10:27:13;;;;;;;21.63;18.75;;;20.90;99.90;;;;;;6239285;23;20019;-81
2023/09/18 10:29:41;;;;;;;26.40;18.08;;;21.00;99.90;;;;;;6188726;23;20350;-81
2023/09/18 10:32:08;;;;;;;20.73;17.92;;;21.10;99.90;;;;;;6188294;23;20182;-81
2023/09/18 10:34:34;;;;;;;23.13;19.50;;;21.30;99.90;;;;;;6213846;23;20019;-81
2023/09/18 10:37:07;;;;;;;22.30;17.95;;;21.40;99.90;;;;;;6189226;23;20071;-80
2023/09/18 10:39:38;;;;;;;21.80;17.88;;;21.10;99.90;;;;;;6214171;23;20012;-82
2023/09/18 10:42:06;;;;;;;20.25;18.10;;;21.40;99.90;;;;;;6188750;23;20015;-78
2023/09/18 10:44:32;;;;;;;19.38;17.48;;;21.60;99.90;;;;;;6213549;23;20023;-79
2023/09/18 10:47:00;;;;;;;18.50;16.63;;;21.70;99.90;;;;;;6212903;23;20008;-79
2023/09/18 10:49:26;;;;;;;17.80;16.10;;;21.70;99.90;;;;;;6213314;23;20012;-80
2023/09/18 10:51:56;;;;;;;17.48;15.73;;;21.80;99.90;;;;;;6188337;23;20012;-80
2023/09/18 10:54:24;;;;;;;19.02;17.13;;;22.00;99.90;;;;;;6213670;23;20016;-82
2023/09/18 10:56:51;;;;;;;17.05;15.38;;;22.20;99.90;;;;;;6216442;23;20217;-81
2023/09/18 10:59:17;;;;;;;18.70;16.88;;;22.40;99.90;;;;;;6188462;23;20013;-82
2023/09/18 11:01:44;;;;;;;15.20;13.90;;;22.40;99.90;;;;;;6212771;23;20012;-81
2023/09/18 11:04:10;;;;;;;15.30;14.10;;;22.50;99.90;;;;;;6213346;23;20095;-80
2023/09/18 11:06:54;;;;;;;17.42;15.82;;;22.50;99.90;;;;;;6213196;23;20312;-81
2023/09/18 11:09:21;;;;;;;15.70;14.35;;;22.40;99.90;;;;;;6238690;23;20035;-80
2023/09/18 11:11:52;;;;;;;18.00;16.50;;;22.20;99.90;;;;;;6188290;23;20012;-81
2023/09/18 11:14:17;;;;;;;13.82;12.48;;;22.30;99.90;;;;;;6188037;23;20019;-80
2023/09/18 11:16:44;;;;;;;13.82;12.63;;;22.30;99.90;;;;;;6187543;23;20024;-81
2023/09/18 11:19:11;;;;;;;15.38;13.65;;;22.30;99.90;;;;;;6187780;23;20049;-80
2023/09/18 11:21:37;;;;;;;14.23;13.02;;;22.30;99.90;;;;;;6187846;23;20040;-81
2023/09/18 11:24:15;;;;;;;15.30;13.90;;;22.20;99.90;;;;;;6188154;23;20020;-81
2023/09/18 11:26:42;;;;;;;14.63;13.30;;;22.20;99.90;;;;;;6187788;23;20012;-80
2023/09/18 11:29:10;;;;;;;16.08;14.48;;;22.10;99.90;;;;;;6213118;23;20500;-81
2023/09/18 11:31:45;;;;;;;14.32;12.93;;;22.10;99.90;;;;;;6212469;23;20015;-81
2023/09/18 11:34:22;;;;;;;14.95;13.80;;;22.00;99.90;;;;;;6238062;23;20012;-81
2023/09/18 11:36:48;;;;;;;14.50;13.07;;;21.80;99.90;;;;;;6188352;23;20154;-80
2023/09/18 11:39:32;;;;;;;16.98;15.55;;;21.70;99.90;;;;;;6213094;23;20020;-81
2023/09/18 11:42:10;;;;;;;16.67;15.27;;;21.80;99.90;;;;;;6186685;23;20054;-81
2023/09/18 11:44:40;;;;;;;14.48;13.07;;;22.00;99.90;;;;;;6186716;23;20019;-82
2023/09/18 11:47:18;;;;;;;20.85;19.25;;;22.10;99.90;;;;;;6210643;23;20107;-81
2023/09/18 11:49:56;;;;;;;15.02;13.40;;;22.10;99.90;;;;;;6187473;23;20081;-81
2023/09/18 11:52:26;;;;;;;16.35;14.98;;;22.00;99.90;;;;;;6187720;23;20048;-81
2023/09/18 11:54:54;;;;;;;13.57;12.43;;;22.00;99.90;;;;;;6187830;23;20038;-80
2023/09/18 11:57:20;;;;;;;16.05;14.55;;;21.90;99.90;;;;;;6212310;23;20023;-81
2023/09/18 11:59:46;;;;;;;14.18;12.82;;;21.80;99.90;;;;;;6187213;23;20004;-81
2023/09/18 12:02:41;;;;;;;13.82;12.68;;;21.80;99.90;;;;;;6188453;23;20012;-81
2023/09/18 12:05:16;;;;;;;17.20;15.68;;;21.80;99.90;;;;;;6187557;23;20012;-82
2023/09/18 12:07:46;;;;;;;16.95;15.45;;;21.80;99.90;;;;;;6212657;23;20012;-80
2023/09/18 12:10:17;;;;;;;12.50;11.40;;;21.90;99.90;;;;;;6213144;23;20052;-82
2023/09/18 12:12:43;;;;;;;12.77;11.60;;;21.90;99.90;;;;;;6188140;23;20413;-80
2023/09/18 12:15:14;;;;;;;12.02;11.02;;;22.20;99.90;;;;;;6187109;23;20082;-78
2023/09/18 12:17:39;;;;;;;13.98;12.65;;;22.40;99.90;;;;;;6240117;23;20032;-78
2023/09/18 12:20:06;;;;;;;13.80;12.45;;;22.60;99.90;;;;;;6212578;23;20346;-78
2023/09/18 12:22:34;;;;;;;18.63;16.77;;;22.70;99.90;;;;;;6187754;23;20008;-83
2023/09/18 12:25:11;;;;;;;15.40;13.57;;;22.60;99.90;;;;;;6188215;23;20041;-83
2023/09/18 12:27:37;;;;;;;20.05;18.45;;;22.70;99.90;;;;;;6187139;23;20023;-82
2023/09/18 12:30:04;;;;;;;18.73;16.92;;;22.80;99.90;;;;;;6185077;23;20070;-81
2023/09/18 12:32:32;;;;;;;15.85;14.32;;;22.90;99.90;;;;;;6187639;23;20678;-83
2023/09/18 12:34:58;;;;;;;16.75;15.38;;;22.90;99.90;;;;;;6187958;23;20343;-83
2023/09/18 12:37:24;;;;;;;16.83;15.50;;;22.80;99.90;;;;;;6187425;23;20008;-83
2023/09/18 12:39:51;;;;;;;15.82;14.38;;;22.80;99.90;;;;;;6213080;23;20541;-82
2023/09/18 12:42:20;;;;;;;16.58;15.15;;;22.80;99.90;;;;;;6187305;23;20474;-82
2023/09/18 12:44:50;;;;;;;15.82;14.23;;;22.90;99.90;;;;;;6188473;23;20012;-83
2023/09/18 12:47:16;;;;;;;15.48;13.80;;;22.80;99.90;;;;;;6190719;23;20043;-84
2023/09/18 12:49:42;;;;;;;17.80;16.17;;;22.80;99.90;;;;;;6190008;23;20598;-82
2023/09/18 12:52:07;;;;;;;16.33;15.02;;;22.70;99.90;;;;;;6190436;23;20338;-83
2023/09/18 12:54:40;;;;;;;18.77;16.48;;;22.80;99.90;;;;;;6215724;23;20012;-84
2023/09/18 12:57:07;;;;;;;;;;;22.90;99.90;;;;;;6190509;23;20048;-83
2023/09/18 12:59:35;;;;;;;14.18;13.05;;;22.90;99.90;;;;;;6240443;23;19915;-84
2023/09/18 13:02:04;;;;;;;15.20;13.95;;;22.90;99.90;;;;;;6215218;23;20015;-84
2023/09/18 13:04:31;;;;;;;16.00;14.57;;;23.00;99.90;;;;;;6190914;23;20019;-83
2023/09/18 13:07:09;;;;;;;16.33;14.75;;;23.10;99.90;;;;;;6190161;23;20016;-83
2023/09/18 13:09:35;;;;;;;16.65;15.27;;;23.10;99.90;;;;;;6190441;23;20016;-82
2023/09/18 13:12:00;;;;;;;13.95;12.65;;;23.10;99.90;;;;;;6190556;23;20043;-84
2023/09/18 13:14:26;;;;;;;13.68;12.48;;;23.10;99.90;;;;;;6190796;23;20008;-84
2023/09/18 13:16:53;;;;;;;17.33;15.52;;;23.10;99.90;;;;;;6190590;23;20020;-84
2023/09/18 13:19:19;;;;;;;14.35;13.25;;;23.10;99.90;;;;;;6215511;23;20065;-83
2023/09/18 13:21:49;;;;;;;14.23;12.98;;;23.00;99.90;;;;;;6214349;23;20008;-83
2023/09/18 13:24:28;;;;;;;16.77;15.43;;;22.90;99.90;;;;;;6191154;23;20009;-82
2023/09/18 13:26:54;;;;;;;13.80;12.60;;;22.70;99.90;;;;;;6215448;23;20573;-83
2023/09/18 13:29:21;;;;;;;16.58;15.35;;;22.60;99.90;;;;;;6217781;23;20020;-83
2023/09/18 13:31:47;;;;;;;17.70;16.15;;;22.60;99.90;;;;;;6217769;23;20012;-83
2023/09/18 13:34:12;;;;;;;20.85;18.85;;;22.50;99.90;;;;;;6192718;23;20062;-81
2023/09/18 13:36:38;;;;;;;14.57;12.90;;;22.50;99.90;;;;;;6191648;23;20027;-81
2023/09/18 13:39:04;;;;;;;15.48;14.07;;;22.60;99.90;;;;;;6191802;23;20016;-82